Time;durP1;ratioP1;P1;durP2;ratioP2;P2;SDS_P1;SDS_P2;PMS_P1;PMS_P2;Temp;Humidity;BMP_temperature;BMP_pressure;BME280_temperature;BME280_humidity;BME280_pressure;Samples;Min_cycle;Max_cycle;Signal;HPM_P1;HPM_P2
2021/08/12 00:02:46;;;;;;;9.80;8.52;;;;;;;19.91;63.72;101965.25;5970703;29;20236;-59
2021/08/12 00:06:07;;;;;;;8.13;7.47;;;;;;;19.36;64.13;101967.69;5980408;29;20236;-60
2021/08/12 00:09:30;;;;;;;9.30;8.55;;;;;;;19.65;64.28;101961.56;5979484;29;20240;-60
2021/08/12 00:12:51;;;;;;;9.23;8.43;;;;;;;19.48;64.17;101967.31;5976573;29;20236;-60
2021/08/12 00:16:12;;;;;;;8.82;7.97;;;;;;;18.97;65.62;101957.28;5968985;29;20228;-59
2021/08/12 00:19:33;;;;;;;9.00;8.13;;;;;;;19.19;65.57;101949.66;5971721;29;20232;-59
2021/08/12 00:22:54;;;;;;;9.77;8.80;;;;;;;19.42;64.18;101944.59;5973965;29;20243;-60
2021/08/12 00:26:17;;;;;;;9.48;7.95;;;;;;;19.29;64.77;101945.88;5972598;29;20580;-59
2021/08/12 00:29:38;;;;;;;8.23;7.57;;;;;;;19.14;65.57;101948.94;5974061;29;20240;-58
2021/08/12 00:32:59;;;;;;;8.10;7.30;;;;;;;19.15;65.47;101945.38;5992020;29;20240;-59
2021/08/12 00:36:20;;;;;;;9.27;8.48;;;;;;;18.93;66.15;101953.00;5970785;29;20241;-60
2021/08/12 00:39:42;;;;;;;8.32;7.63;;;;;;;19.19;65.71;101947.00;5957119;29;20271;-60
2021/08/12 00:43:09;;;;;;;9.65;8.73;;;;;;;19.32;64.92;101951.06;5989886;29;20323;-60
2021/08/12 00:46:30;;;;;;;9.43;8.63;;;;;;;19.34;64.97;101949.22;5989148;29;20768;-60
2021/08/12 00:49:51;;;;;;;9.73;8.93;;;;;;;19.23;65.25;101952.19;5971407;29;20240;-59
2021/08/12 00:53:13;;;;;;;8.55;7.78;;;;;;;19.13;65.78;101955.97;5979807;29;20228;-61
2021/08/12 00:56:37;;;;;;;7.90;7.20;;;;;;;18.98;66.41;101944.06;5973325;29;20237;-59
2021/08/12 00:59:59;;;;;;;9.35;8.55;;;;;;;18.84;66.57;101949.69;5968852;29;20248;-60
2021/08/12 01:03:20;;;;;;;9.35;8.18;;;;;;;19.05;66.07;101953.53;5967356;29;20619;-60
2021/08/12 01:06:50;;;;;;;8.15;7.55;;;;;;;18.68;67.01;101949.16;5970507;29;20236;-61
2021/08/12 01:10:19;;;;;;;8.48;7.43;;;;;;;19.13;65.84;101945.41;5972261;29;20236;-61
2021/08/12 01:13:52;;;;;;;9.15;8.00;;;;;;;19.27;65.62;101937.97;5974290;29;20611;-59
2021/08/12 01:17:20;;;;;;;8.48;7.80;;;;;;;19.10;65.74;101939.38;5976429;29;21009;-59
2021/08/12 01:20:52;;;;;;;8.65;7.95;;;;;;;18.82;66.66;101937.44;5982552;29;20547;-60
2021/08/12 01:24:15;;;;;;;7.88;7.18;;;;;;;19.08;66.17;101937.63;5984285;29;20236;-60
2021/08/12 01:27:43;;;;;;;8.77;7.88;;;;;;;19.10;66.25;101944.66;5977948;29;20268;-59
2021/08/12 01:31:20;;;;;;;8.52;7.53;;;;;;;19.17;65.60;101943.53;5987542;29;20240;-60
2021/08/12 01:34:55;;;;;;;8.75;7.97;;;;;;;19.07;66.05;101943.78;5968826;29;20240;-59
2021/08/12 01:38:22;;;;;;;8.20;7.50;;;;;;;18.80;67.15;101940.09;5978754;29;20231;-61
2021/08/12 01:41:46;;;;;;;9.25;8.45;;;;;;;18.95;66.76;101945.91;5970490;29;20610;-60
2021/08/12 01:45:08;;;;;;;9.52;8.63;;;;;;;18.70;67.12;101942.06;5991470;29;20543;-60
2021/08/12 01:48:32;;;;;;;10.48;9.35;;;;;;;18.16;69.17;101950.41;5962239;29;20280;-60
2021/08/12 01:51:55;;;;;;;10.30;9.50;;;;;;;18.49;68.28;101940.84;5975135;29;20240;-59
2021/08/12 01:55:25;;;;;;;11.75;10.68;;;;;;;18.33;68.54;101943.88;5988293;29;20268;-59
2021/08/12 01:58:48;;;;;;;10.48;9.35;;;;;;;18.38;68.58;101944.63;5975924;29;20622;-59
2021/08/12 02:02:10;;;;;;;12.13;10.93;;;;;;;17.87;70.13;101951.06;5989261;29;20240;-59
2021/08/12 02:05:33;;;;;;;8.82;8.13;;;;;;;18.16;69.77;101939.84;5970574;29;20877;-59
2021/08/12 02:08:57;;;;;;;10.32;9.48;;;;;;;18.46;68.87;101930.38;5975152;29;20235;-61
2021/08/12 02:12:18;;;;;;;9.02;8.13;;;;;;;18.51;68.42;101935.53;5961129;29;20442;-59
2021/08/12 02:15:39;;;;;;;9.13;8.43;;;;;;;18.18;69.07;101929.28;5969014;29;20239;-59
2021/08/12 02:19:00;;;;;;;9.25;8.45;;;;;;;18.19;69.50;101931.03;5962053;29;20231;-59
2021/08/12 02:22:25;;;;;;;10.32;9.45;;;;;;;18.44;68.45;101936.59;5990382;29;20327;-60
2021/08/12 02:25:57;;;;;;;11.40;10.27;;;;;;;18.62;67.55;101933.50;5978186;29;20240;-60
2021/08/12 02:29:20;;;;;;;10.35;9.38;;;;;;;18.18;69.11;101932.78;5976887;29;20244;-59
2021/08/12 02:32:45;;;;;;;9.40;8.60;;;;;;;18.39;68.44;101935.81;5987614;29;20236;-60
2021/08/12 02:36:07;;;;;;;9.18;8.43;;;;;;;18.43;67.98;101934.84;5966356;29;20703;-60
2021/08/12 02:39:30;;;;;;;9.73;8.82;;;;;;;18.55;67.35;101925.75;5986720;29;20793;-60
2021/08/12 02:42:54;;;;;;;9.98;9.18;;;;;;;18.13;68.49;101932.03;5965294;29;20240;-60
2021/08/12 02:46:20;;;;;;;10.48;9.48;;;;;;;18.10;68.45;101929.47;5967192;29;20327;-60
2021/08/12 02:49:44;;;;;;;9.82;9.13;;;;;;;18.12;68.53;101930.28;5988852;29;20232;-59
2021/08/12 02:53:07;;;;;;;9.48;8.68;;;;;;;18.26;68.36;101929.97;5990418;29;20247;-60
2021/08/12 02:56:29;;;;;;;9.97;9.03;;;;;;;18.37;67.80;101921.81;5991580;29;20236;-60
2021/08/12 02:59:51;;;;;;;9.93;9.13;;;;;;;18.29;67.78;101922.84;5968469;29;20343;-60
2021/08/12 03:03:14;;;;;;;10.13;9.20;;;;;;;18.12;67.98;101922.38;5973676;29;20231;-59
2021/08/12 03:06:38;;;;;;;9.80;8.77;;;;;;;18.08;68.63;101921.59;5979696;29;20314;-61
2021/08/12 03:10:00;;;;;;;10.18;9.27;;;;;;;18.09;68.25;101922.47;5986117;29;20251;-60
2021/08/12 03:13:21;;;;;;;9.27;8.47;;;;;;;18.12;68.72;101927.66;5973414;29;20611;-60
2021/08/12 03:16:45;;;;;;;9.35;8.60;;;;;;;18.08;68.82;101926.84;5970836;29;20235;-59
2021/08/12 03:20:08;;;;;;;10.07;8.90;;;;;;;18.26;67.90;101928.22;5972911;29;20227;-59
2021/08/12 03:23:28;;;;;;;9.50;8.68;;;;;;;18.23;67.87;101936.19;5991591;29;20252;-59
2021/08/12 03:26:52;;;;;;;9.32;8.57;;;;;;;17.87;68.66;101946.66;5975245;29;20611;-59
2021/08/12 03:30:14;;;;;;;10.57;9.60;;;;;;;18.07;68.30;101932.19;5976923;29;20373;-60
2021/08/12 03:33:37;;;;;;;9.32;8.52;;;;;;;18.02;68.40;101936.69;5973905;29;20239;-60
2021/08/12 03:36:57;;;;;;;9.02;8.30;;;;;;;17.77;68.64;101941.59;6002431;29;20259;-59
2021/08/12 03:40:18;;;;;;;9.57;8.68;;;;;;;17.66;69.13;101947.97;5976800;29;20235;-59
2021/08/12 03:43:40;;;;;;;10.03;9.07;;;;;;;17.93;68.85;101944.78;5980035;29;20624;-59
2021/08/12 03:47:01;;;;;;;9.00;8.20;;;;;;;17.45;70.29;101953.66;5988231;29;20272;-57
2021/08/12 03:50:24;;;;;;;9.52;8.70;;;;;;;17.53;70.30;101951.72;5972876;29;20327;-59
2021/08/12 03:53:44;;;;;;;8.27;7.68;;;;;;;17.97;68.31;101949.09;5981611;29;20845;-57
2021/08/12 03:57:06;;;;;;;12.50;11.27;;;;;;;17.50;70.15;101950.00;5974595;29;20243;-58
2021/08/12 04:00:27;;;;;;;17.97;16.47;;;;;;;17.95;68.72;101953.53;5968839;29;20620;-56
2021/08/12 04:03:48;;;;;;;15.57;14.18;;;;;;;17.96;68.02;101956.13;5980302;29;20228;-59
2021/08/12 04:07:10;;;;;;;14.53;12.80;;;;;;;17.95;67.79;101961.44;5978967;29;20268;-59
2021/08/12 04:10:32;;;;;;;10.38;9.48;;;;;;;17.91;68.11;101963.25;5972438;29;20239;-59
2021/08/12 04:13:53;;;;;;;10.60;9.15;;;;;;;18.06;67.88;101949.75;5971565;29;20228;-60
2021/08/12 04:17:15;;;;;;;9.70;8.73;;;;;;;18.18;67.36;101951.22;5992014;29;20240;-60
2021/08/12 04:20:36;;;;;;;9.50;8.60;;;;;;;17.64;68.32;101956.75;5973354;29;20507;-60
2021/08/12 04:23:58;;;;;;;10.75;9.85;;;;;;;17.73;68.54;101948.69;5974056;29;20244;-59
2021/08/12 04:27:20;;;;;;;8.83;8.03;;;;;;;17.23;69.73;101950.56;5968141;29;20515;-59
2021/08/12 04:30:41;;;;;;;10.43;9.40;;;;;;;17.52;68.10;101944.72;5952950;29;20597;-60
2021/08/12 04:34:02;;;;;;;9.23;8.43;;;;;;;17.47;68.56;101954.50;5992421;29;20623;-60
2021/08/12 04:37:23;;;;;;;9.57;8.60;;;;;;;17.58;68.49;101947.22;5971521;29;20267;-60
2021/08/12 04:40:46;;;;;;;13.07;11.10;;;;;;;17.82;68.37;101939.72;5991412;29;20240;-61
2021/08/12 04:44:07;;;;;;;12.33;11.07;;;;;;;18.07;67.06;101940.09;5986653;29;20259;-59
2021/08/12 04:47:29;;;;;;;11.33;10.27;;;;;;;18.03;67.03;101939.28;5990575;29;20248;-60
2021/08/12 04:50:52;;;;;;;10.47;9.37;;;;;;;18.40;66.27;101937.56;5989536;29;20228;-60
2021/08/12 04:54:13;;;;;;;10.13;9.38;;;;;;;18.42;66.04;101946.31;5964260;29;20611;-59
2021/08/12 04:57:36;;;;;;;9.27;8.37;;;;;;;18.46;65.61;101942.69;5985715;29;20247;-60
2021/08/12 05:00:57;;;;;;;8.70;7.80;;;;;;;18.18;66.24;101948.59;5963396;29;20232;-60
2021/08/12 05:04:18;;;;;;;8.98;8.25;;;;;;;18.06;66.70;101948.88;5977310;29;20232;-60
2021/08/12 05:07:39;;;;;;;9.38;8.50;;;;;;;17.81;67.30;101953.78;5978295;29;20231;-59
2021/08/12 05:11:00;;;;;;;8.05;7.35;;;;;;;18.35;65.75;101957.91;5985660;29;20335;-60
2021/08/12 05:14:23;;;;;;;7.77;7.07;;;;;;;18.63;65.15;101953.72;5972413;29;20248;-60
2021/08/12 05:17:44;;;;;;;12.02;10.93;;;;;;;18.72;65.03;101954.38;5971425;29;20235;-60
2021/08/12 05:21:07;;;;;;;14.55;9.45;;;;;;;18.85;64.17;101958.47;5989046;29;20232;-61
2021/08/12 05:24:28;;;;;;;12.23;8.38;;;;;;;18.77;64.45;101952.50;5968701;29;20248;-60
2021/08/12 05:27:49;;;;;;;8.43;7.72;;;;;;;18.82;64.21;101955.91;5984228;29;20244;-60
2021/08/12 05:31:12;;;;;;;10.55;9.13;;;;;;;18.75;64.15;101946.41;5975790;29;20262;-60
2021/08/12 05:34:33;;;;;;;12.73;11.45;;;;;;;18.85;64.51;101947.91;5987127;29;20240;-60
2021/08/12 05:37:55;;;;;;;10.82;8.73;;;;;;;19.01;63.37;101951.88;5966629;29;20665;-60
2021/08/12 05:41:16;;;;;;;7.85;7.05;;;;;;;18.78;63.85;101948.94;5971437;29;20322;-59
2021/08/12 05:44:38;;;;;;;9.23;8.07;;;;;;;18.99;63.46;101937.84;5986985;29;20263;-59
2021/08/12 05:48:00;;;;;;;11.13;8.75;;;;;;;18.97;63.08;101938.81;5974233;29;20244;-60
2021/08/12 05:51:20;;;;;;;16.98;8.30;;;;;;;18.94;63.15;101944.16;5973253;29;20239;-59
2021/08/12 05:54:41;;;;;;;14.93;13.52;;;;;;;19.28;62.29;101938.84;5970191;29;20301;-60
2021/08/12 05:58:04;;;;;;;12.20;10.67;;;;;;;19.47;61.58;101932.13;5971210;29;20515;-59
2021/08/12 06:01:25;;;;;;;9.20;8.13;;;;;;;19.19;61.98;101942.63;5992025;29;20323;-60
2021/08/12 06:04:48;;;;;;;10.93;9.15;;;;;;;19.05;62.82;101937.69;5966864;29;20235;-60
2021/08/12 06:08:13;;;;;;;9.00;8.27;;;;;;;18.75;63.12;101935.84;5976739;29;20658;-60
2021/08/12 06:11:34;;;;;;;9.00;8.10;;;;;;;18.83;63.25;101939.16;5965748;29;20243;-60
2021/08/12 06:14:55;;;;;;;9.02;8.23;;;;;;;19.29;62.18;101937.94;5968382;29;20268;-60
2021/08/12 06:18:17;;;;;;;10.40;7.38;;;;;;;19.30;61.68;101934.38;5979172;29;20315;-61
2021/08/12 06:21:40;;;;;;;10.55;8.18;;;;;;;19.50;60.88;101951.44;5994699;29;20247;-60
2021/08/12 06:25:01;;;;;;;8.18;7.20;;;;;;;18.82;62.92;101942.72;5959142;29;20514;-62
2021/08/12 06:28:23;;;;;;;8.63;7.38;;;;;;;18.93;62.35;101939.81;5966867;29;20991;-61
2021/08/12 06:31:46;;;;;;;8.23;7.43;;;;;;;19.53;60.64;101932.88;5972703;29;21567;-61
2021/08/12 06:35:09;;;;;;;8.40;7.40;;;;;;;19.48;60.41;101928.59;5975365;29;20241;-60
2021/08/12 06:38:33;;;;;;;10.75;7.30;;;;;;;19.44;59.56;101928.72;5954153;29;20240;-60
2021/08/12 06:41:54;;;;;;;7.60;6.90;;;;;;;19.81;59.26;101938.22;5972072;29;20235;-60
2021/08/12 06:45:20;;;;;;;7.68;6.95;;;;;;;19.60;60.22;101940.59;5949479;29;20334;-59
2021/08/12 06:48:41;;;;;;;9.50;6.93;;;;;;;19.60;60.23;101947.63;5960294;29;20555;-61
2021/08/12 06:52:02;;;;;;;8.77;7.32;;;;;;;20.30;58.91;101936.72;5955503;29;20256;-60
2021/08/12 06:55:25;;;;;;;10.00;8.23;;;;;;;19.82;58.76;101943.47;5947636;29;20638;-61
2021/08/12 06:58:46;;;;;;;6.97;6.30;;;;;;;20.72;56.25;101940.69;5943335;29;20244;-60
2021/08/12 07:02:08;;;;;;;7.78;7.05;;;;;;;21.01;55.10;101939.66;5955552;29;20268;-63
2021/08/12 07:05:28;;;;;;;7.63;6.93;;;;;;;20.65;55.87;101937.38;5955943;29;20232;-61
2021/08/12 07:08:52;;;;;;;9.52;6.50;;;;;;;20.52;55.65;101926.31;5960722;29;20251;-61
2021/08/12 07:12:16;;;;;;;8.32;7.53;;;;;;;20.22;56.33;101926.41;5948837;29;20256;-60
2021/08/12 07:15:37;;;;;;;8.15;7.35;;;;;;;20.98;55.00;101934.50;5962960;29;20268;-61
2021/08/12 07:18:58;;;;;;;8.95;7.25;;;;;;;20.96;55.48;101931.03;5954126;29;20248;-62
2021/08/12 07:22:20;;;;;;;8.93;7.72;;;;;;;21.26;54.89;101934.38;5968215;29;20240;-61
2021/08/12 07:25:42;;;;;;;7.47;6.70;;;;;;;21.03;54.32;101943.13;5966995;29;20248;-60
2021/08/12 07:29:04;;;;;;;7.70;6.95;;;;;;;20.97;54.36;101938.91;5964699;29;20243;-60
2021/08/12 07:32:26;;;;;;;7.82;6.70;;;;;;;21.09;54.31;101942.91;5979008;29;20502;-61
2021/08/12 07:35:50;;;;;;;8.07;6.72;;;;;;;21.14;54.01;101942.75;5992213;29;20598;-61
2021/08/12 07:39:11;;;;;;;7.10;6.18;;;;;;;21.56;53.20;101935.06;5989140;29;20247;-61
2021/08/12 07:42:31;;;;;;;7.63;6.15;;;;;;;21.29;53.84;101936.06;5978041;29;20236;-60
2021/08/12 07:45:54;;;;;;;7.25;6.65;;;;;;;21.20;54.42;101939.88;5981910;29;20491;-60
2021/08/12 07:49:15;;;;;;;8.63;7.72;;;;;;;21.36;53.85;101935.75;5972347;29;20240;-60
2021/08/12 07:52:39;;;;;;;6.18;5.68;;;;;;;21.77;53.63;101929.84;5965068;29;20236;-60
2021/08/12 07:56:00;;;;;;;7.85;6.97;;;;;;;21.74;53.60;101922.91;5967690;29;20233;-60
2021/08/12 07:59:21;;;;;;;9.55;7.35;;;;;;;21.11;55.44;101929.63;5974169;29;20247;-61
2021/08/12 08:02:47;;;;;;;11.60;7.40;;;;;;;21.83;52.30;101921.69;5972101;29;20244;-61
2021/08/12 08:06:09;;;;;;;8.18;6.20;;;;;;;21.88;52.32;101921.50;5986815;29;20318;-59
2021/08/12 08:09:30;;;;;;;6.95;6.25;;;;;;;21.44;53.86;101924.91;5975583;29;20239;-60
2021/08/12 08:12:51;;;;;;;9.07;6.90;;;;;;;21.12;54.65;101934.00;5975869;29;20251;-60
2021/08/12 08:16:14;;;;;;;10.32;6.50;;;;;;;20.97;55.13;101933.63;5976067;29;20319;-59
2021/08/12 08:19:36;;;;;;;9.43;6.75;;;;;;;20.68;56.02;101925.81;5971052;29;20846;-59
2021/08/12 08:23:02;;;;;;;17.42;7.22;;;;;;;21.42;54.48;101930.25;5988256;29;20529;-60
2021/08/12 08:26:24;;;;;;;8.45;6.20;;;;;;;22.51;52.07;101927.81;5977176;29;20240;-60
2021/08/12 08:29:45;;;;;;;11.98;6.70;;;;;;;22.72;51.62;101931.38;5973685;29;20241;-60
2021/08/12 08:33:07;;;;;;;6.93;5.70;;;;;;;22.36;52.47;101925.81;5966175;29;20236;-60
2021/08/12 08:36:30;;;;;;;6.18;5.57;;;;;;;22.59;52.43;101933.66;5975423;29;20248;-59
2021/08/12 08:39:50;;;;;;;5.65;5.15;;;;;;;23.30;51.67;101917.34;5971897;29;20240;-60
2021/08/12 08:43:12;;;;;;;6.68;6.05;;;;;;;24.22;48.78;101924.63;5971442;29;20330;-60
2021/08/12 08:46:34;;;;;;;8.15;5.70;;;;;;;23.63;49.17;101922.03;5977062;29;20240;-59
2021/08/12 08:49:56;;;;;;;5.75;5.20;;;;;;;23.61;49.90;101921.25;5975043;29;20236;-60
2021/08/12 08:53:19;;;;;;;5.45;4.95;;;;;;;23.83;50.53;101920.28;5976011;29;20240;-60
2021/08/12 08:56:40;;;;;;;6.18;5.57;;;;;;;24.06;49.23;101922.72;5979190;29;20247;-60
2021/08/12 09:00:02;;;;;;;6.47;5.13;;;;;;;24.00;49.34;101915.03;5963628;29;20236;-60
2021/08/12 09:03:23;;;;;;;8.02;5.00;;;;;;;24.33;48.64;101911.63;5976586;29;20236;-60
2021/08/12 09:06:44;;;;;;;6.05;5.55;;;;;;;24.41;48.92;101921.88;5966349;29;20229;-61
2021/08/12 09:10:08;;;;;;;5.35;4.72;;;;;;;24.23;49.00;101923.66;5966682;29;20288;-60
2021/08/12 09:13:29;;;;;;;6.80;6.13;;;;;;;24.13;48.82;101910.81;5966504;29;20322;-54
2021/08/12 09:16:50;;;;;;;5.78;5.20;;;;;;;24.34;47.23;101903.56;5966874;29;20233;-56
2021/08/12 09:20:14;;;;;;;5.82;4.97;;;;;;;24.61;45.74;101903.16;5962120;29;22504;-57
2021/08/12 09:23:35;;;;;;;5.57;4.95;;;;;;;24.90;46.18;101903.44;5965059;29;20271;-57
2021/08/12 09:26:57;;;;;;;5.60;4.72;;;;;;;25.04;45.69;101897.38;5969258;29;20538;-56
2021/08/12 09:30:18;;;;;;;5.60;5.13;;;;;;;25.39;44.66;101906.19;5968281;29;20271;-58
2021/08/12 09:33:52;;;;;;;5.85;5.25;;;;;;;25.29;44.93;101899.63;5962831;29;20240;-57
2021/08/12 09:37:15;;;;;;;5.25;4.75;;;;;;;25.09;46.46;101908.69;5969177;29;20233;-57
2021/08/12 09:40:36;;;;;;;5.35;4.93;;;;;;;25.22;45.07;101898.22;5966748;29;20239;-57
2021/08/12 09:43:58;;;;;;;7.85;5.22;;;;;;;25.34;44.07;101902.94;5968444;29;20240;-57
2021/08/12 09:47:29;;;;;;;5.28;4.55;;;;;;;24.76;44.96;101906.84;5965705;29;20236;-57
2021/08/12 09:51:00;;;;;;;5.65;5.07;;;;;;;24.93;44.50;101904.16;5959725;29;20236;-55
2021/08/12 09:54:29;;;;;;;5.82;5.32;;;;;;;25.67;43.68;101904.69;5961241;29;20244;-58
2021/08/12 09:57:53;;;;;;;5.90;5.43;;;;;;;24.74;44.00;101904.25;5959041;29;20272;-57
2021/08/12 10:01:20;;;;;;;6.38;5.75;;;;;;;24.81;45.59;101910.09;5953020;29;20564;-58
2021/08/12 10:04:43;;;;;;;6.07;5.47;;;;;;;25.32;44.15;101902.16;5972945;29;20232;-58
2021/08/12 10:08:05;;;;;;;5.70;5.20;;;;;;;25.79;43.00;101897.81;5959504;29;20232;-57
2021/08/12 10:11:28;;;;;;;5.95;5.45;;;;;;;26.18;42.09;101904.50;5960093;29;20236;-59
2021/08/12 10:14:49;;;;;;;5.90;5.40;;;;;;;25.33;44.42;101891.38;5957159;29;20251;-57
2021/08/12 10:18:11;;;;;;;6.78;6.03;;;;;;;26.07;42.91;101887.28;5949637;29;20240;-56
2021/08/12 10:21:36;;;;;;;7.57;5.03;;;;;;;26.29;42.76;101884.25;5959289;29;20240;-57
2021/08/12 10:24:58;;;;;;;6.63;6.03;;;;;;;26.19;41.88;101885.75;5957913;29;20240;-56
2021/08/12 10:28:21;;;;;;;5.65;5.15;;;;;;;26.31;42.09;101889.50;5950537;29;20323;-57
2021/08/12 10:31:46;;;;;;;6.18;5.60;;;;;;;25.68;42.63;101895.72;5950902;29;20310;-58
2021/08/12 10:35:10;;;;;;;6.93;6.32;;;;;;;27.00;41.22;101882.69;5953029;29;20510;-55
2021/08/12 10:38:30;;;;;;;6.18;5.63;;;;;;;27.31;40.65;101886.16;5957478;29;20268;-56
2021/08/12 10:41:51;;;;;;;5.60;5.18;;;;;;;27.38;40.98;101889.31;5958380;29;20343;-57
2021/08/12 10:45:13;;;;;;;8.45;5.90;;;;;;;26.85;40.76;101884.50;5968501;29;20513;-55
2021/08/12 10:48:34;;;;;;;5.47;5.05;;;;;;;26.42;42.55;101872.81;5974188;29;20523;-57
2021/08/12 10:52:07;;;;;;;5.43;5.03;;;;;;;27.55;40.09;101869.50;5972407;29;20240;-57
2021/08/12 10:55:29;;;;;;;6.40;5.13;;;;;;;27.35;40.67;101868.09;5970633;29;20243;-56
2021/08/12 10:59:03;;;;;;;6.22;5.68;;;;;;;26.29;42.17;101864.69;5969701;29;20420;-58
2021/08/12 11:02:45;;;;;;;6.60;6.10;;;;;;;27.05;41.37;101861.03;5976643;29;20239;-57
2021/08/12 11:06:09;;;;;;;6.05;5.57;;;;;;;27.41;40.12;101857.88;5974821;29;20256;-56
2021/08/12 11:09:55;;;;;;;5.85;5.35;;;;;;;28.42;39.15;101862.88;5957402;29;20555;-55
2021/08/12 11:13:33;;;;;;;6.68;6.05;;;;;;;28.46;37.71;101851.84;5957073;29;20236;-58
2021/08/12 11:16:54;;;;;;;5.82;5.32;;;;;;;28.83;37.62;101857.38;5957654;29;20244;-57
2021/08/12 11:20:32;;;;;;;6.53;5.97;;;;;;;28.27;36.60;101856.75;5955013;29;20247;-59
2021/08/12 11:23:53;;;;;;;5.90;5.40;;;;;;;27.17;38.75;101854.91;5959910;29;20267;-55
2021/08/12 11:27:15;;;;;;;5.85;5.40;;;;;;;27.30;37.97;101852.38;5961116;29;20271;-56
2021/08/12 11:30:40;;;;;;;6.90;5.78;;;;;;;28.26;38.07;101836.28;5950838;29;20588;-56
2021/08/12 11:34:03;;;;;;;6.10;5.50;;;;;;;27.45;37.69;101854.06;5958704;29;20232;-59
2021/08/12 11:37:25;;;;;;;5.75;5.32;;;;;;;27.71;37.47;101858.69;5962512;29;20549;-55
2021/08/12 11:40:47;;;;;;;5.93;5.43;;;;;;;28.14;37.15;101847.84;5949234;29;20237;-58
2021/08/12 11:44:12;;;;;;;5.95;5.45;;;;;;;28.54;36.74;101853.16;5959521;29;20245;-56
2021/08/12 11:47:34;;;;;;;6.00;5.50;;;;;;;27.94;37.19;101839.31;5956812;29;20240;-56
2021/08/12 11:51:00;;;;;;;5.93;5.43;;;;;;;28.16;36.96;101833.38;5958608;29;20243;-57
2021/08/12 11:54:26;;;;;;;5.72;5.32;;;;;;;29.03;36.12;101836.34;5954811;29;20244;-57
2021/08/12 11:57:48;;;;;;;6.85;4.95;;;;;;;28.18;36.68;101841.31;5961486;29;20240;-57
2021/08/12 12:01:20;;;;;;;5.22;4.82;;;;;;;28.19;36.57;101835.84;5974133;29;20832;-57
2021/08/12 12:04:42;;;;;;;7.35;5.35;;;;;;;27.95;37.06;101840.16;5973667;29;20236;-57
2021/08/12 12:08:08;;;;;;;5.63;5.18;;;;;;;27.83;37.59;101848.00;5972911;29;20243;-58
2021/08/12 12:11:29;;;;;;;4.55;4.15;;;;;;;29.51;35.60;101830.22;5973050;29;20240;-55
2021/08/12 12:14:50;;;;;;;6.22;5.55;;;;;;;29.07;35.30;101837.81;5972272;29;20946;-57
2021/08/12 12:18:15;;;;;;;5.32;4.93;;;;;;;31.40;31.72;101827.25;5970501;29;20236;-58
2021/08/12 12:21:36;;;;;;;5.43;4.93;;;;;;;33.06;29.04;101825.81;5987120;29;20260;-55
2021/08/12 12:24:58;;;;;;;5.32;4.93;;;;;;;31.77;30.36;101842.25;5974291;29;20232;-58
2021/08/12 12:28:19;;;;;;;5.40;4.90;;;;;;;34.45;26.64;101823.97;5977199;29;20517;-57
2021/08/12 12:31:40;;;;;;;5.25;4.75;;;;;;;32.04;30.27;101833.72;5974098;29;20248;-57
2021/08/12 12:35:05;;;;;;;5.90;5.35;;;;;;;36.33;24.79;101822.53;5970856;29;20358;-55
2021/08/12 12:38:26;;;;;;;5.15;4.75;;;;;;;39.10;21.71;101811.34;5968881;29;20248;-55
2021/08/12 12:41:48;;;;;;;5.70;4.78;;;;;;;38.26;21.83;101820.94;5973330;29;20232;-57
2021/08/12 12:45:11;;;;;;;5.95;5.35;;;;;;;36.24;23.81;101813.50;5970483;29;20698;-57
2021/08/12 12:48:33;;;;;;;5.30;4.90;;;;;;;32.96;27.68;101820.41;5967921;29;20240;-57
2021/08/12 12:52:05;;;;;;;6.22;4.80;;;;;;;31.12;31.53;101817.06;5973095;29;20247;-57
2021/08/12 12:55:32;;;;;;;5.57;5.10;;;;;;;30.14;33.33;101812.13;5966717;29;20243;-57
2021/08/12 12:58:53;;;;;;;4.43;4.05;;;;;;;29.93;33.58;101814.63;5968535;29;20256;-56
2021/08/12 13:02:17;;;;;;;5.75;4.70;;;;;;;35.02;26.23;101805.84;5974042;29;20263;-57
2021/08/12 13:05:52;;;;;;;4.82;4.43;;;;;;;37.84;22.70;101809.22;5970606;29;20587;-56
2021/08/12 13:09:30;;;;;;;4.78;4.38;;;;;;;38.94;21.52;101808.69;5967487;29;20350;-59
2021/08/12 13:12:59;;;;;;;4.70;4.30;;;;;;;32.65;29.22;101806.06;5968301;29;20623;-58
2021/08/12 13:16:38;;;;;;;7.22;6.68;;;;;;;29.44;34.22;101790.44;5969300;29;20251;-58
2021/08/12 13:20:11;;;;;;;9.25;5.57;;;;;;;29.13;35.24;101799.88;5954858;29;20231;-57
2021/08/12 13:23:32;;;;;;;4.75;4.35;;;;;;;31.75;30.94;101784.97;5965654;29;20236;-59
2021/08/12 13:27:00;;;;;;;3.95;3.65;;;;;;;32.75;28.92;101779.16;5987434;29;20256;-59
2021/08/12 13:30:28;;;;;;;4.25;3.90;;;;;;;28.82;35.19;101785.94;5968866;29;20239;-59
2021/08/12 13:33:49;;;;;;;4.72;3.80;;;;;;;32.92;29.41;101773.09;5972517;29;20346;-58
2021/08/12 13:37:11;;;;;;;5.28;4.40;;;;;;;35.85;25.02;101767.78;5963920;29;20517;-58
2021/08/12 13:40:32;;;;;;;5.10;4.55;;;;;;;31.51;30.85;101767.22;5962651;29;20335;-57
2021/08/12 13:43:54;;;;;;;6.05;4.65;;;;;;;29.47;33.86;101770.59;5964938;29;20251;-59
2021/08/12 13:47:15;;;;;;;4.88;4.32;;;;;;;29.17;34.32;101765.66;5961480;29;20627;-59
2021/08/12 13:50:36;;;;;;;4.38;3.95;;;;;;;28.70;35.65;101770.75;5953157;29;20236;-58
2021/08/12 13:53:57;;;;;;;4.50;4.15;;;;;;;28.45;36.47;101771.59;5970612;29;20247;-58
2021/08/12 13:57:18;;;;;;;5.53;4.07;;;;;;;28.19;36.72;101770.72;5960870;29;20232;-55
2021/08/12 14:00:40;;;;;;;5.53;4.75;;;;;;;31.45;31.27;101766.84;5968438;29;20243;-57
2021/08/12 14:04:01;;;;;;;4.65;4.25;;;;;;;32.03;30.64;101763.81;5964167;29;20240;-57
2021/08/12 14:07:23;;;;;;;4.68;3.78;;;;;;;28.25;35.88;101775.66;5969987;29;20332;-59
2021/08/12 14:10:44;;;;;;;6.65;4.47;;;;;;;28.12;36.59;101772.09;5967239;29;20240;-56
2021/08/12 14:14:06;;;;;;;4.32;3.92;;;;;;;28.18;36.10;101752.94;5979988;29;20508;-57
2021/08/12 14:17:28;;;;;;;4.13;3.83;;;;;;;31.77;30.04;101745.31;5969067;29;20248;-58
2021/08/12 14:20:49;;;;;;;4.97;4.50;;;;;;;32.31;29.18;101748.81;5978895;29;20240;-57
2021/08/12 14:24:10;;;;;;;4.38;3.97;;;;;;;32.04;29.95;101742.13;5979803;29;20235;-58
2021/08/12 14:27:31;;;;;;;4.10;3.72;;;;;;;31.06;31.95;101740.41;5974984;29;20622;-58
2021/08/12 14:30:53;;;;;;;6.32;4.15;;;;;;;30.26;33.21;101746.69;5971120;29;20616;-58
2021/08/12 14:34:15;;;;;;;5.15;4.40;;;;;;;31.57;31.66;101739.78;5965731;29;20236;-58
2021/08/12 14:37:36;;;;;;;4.07;3.67;;;;;;;32.31;30.00;101746.13;5970261;29;20248;-58
2021/08/12 14:40:59;;;;;;;4.35;3.95;;;;;;;30.35;31.85;101748.72;5967137;29;20248;-58
2021/08/12 14:44:19;;;;;;;3.55;3.35;;;;;;;30.34;32.00;101749.69;5977999;29;20322;-58
2021/08/12 14:47:40;;;;;;;4.22;3.83;;;;;;;31.03;31.59;101748.72;5966343;29;20315;-58
2021/08/12 14:51:03;;;;;;;5.25;4.35;;;;;;;29.54;33.73;101749.50;5958311;29;20248;-59
2021/08/12 14:54:24;;;;;;;4.88;4.15;;;;;;;30.73;32.26;101750.19;5968688;29;20244;-58
2021/08/12 14:57:45;;;;;;;4.95;4.55;;;;;;;31.23;31.18;101740.84;5983148;29;20727;-58
2021/08/12 15:01:06;;;;;;;5.57;5.07;;;;;;;30.99;30.95;101734.66;5981319;29;20239;-58
2021/08/12 15:04:26;;;;;;;8.15;4.57;;;;;;;30.45;32.38;101739.94;5970912;29;20730;-59
2021/08/12 15:07:49;;;;;;;4.90;4.50;;;;;;;30.20;32.73;101745.34;5977574;29;20244;-56
2021/08/12 15:11:10;;;;;;;4.63;4.22;;;;;;;31.07;31.93;101735.88;5983514;29;20243;-59
2021/08/12 15:14:31;;;;;;;5.15;4.53;;;;;;;30.82;31.76;101735.16;5978341;29;20243;-58
2021/08/12 15:17:51;;;;;;;4.63;4.18;;;;;;;32.11;30.83;101726.31;5970902;29;20346;-58
2021/08/12 15:21:13;;;;;;;4.68;4.28;;;;;;;31.29;31.25;101740.34;5967800;29;20237;-58
2021/08/12 15:24:35;;;;;;;3.83;3.53;;;;;;;32.29;30.45;101726.53;5979943;29;20244;-59
2021/08/12 15:27:56;;;;;;;6.03;4.68;;;;;;;31.69;30.82;101729.81;5986335;29;20244;-57
2021/08/12 15:31:16;;;;;;;7.18;4.10;;;;;;;31.89;30.37;101728.13;5979161;29;20244;-58
2021/08/12 15:34:37;;;;;;;4.03;3.70;;;;;;;29.42;34.21;101733.34;5960154;29;20240;-58
2021/08/12 15:37:58;;;;;;;4.68;4.25;;;;;;;31.24;31.78;101727.28;5974055;29;20236;-58
2021/08/12 15:41:20;;;;;;;4.18;3.72;;;;;;;31.14;31.24;101727.19;5978967;29;20236;-58
2021/08/12 15:44:41;;;;;;;4.80;4.40;;;;;;;31.66;30.72;101721.13;5973450;29;20639;-58